This is the latest recevied weather packets stored in our database for station/object JA0BES-13. If no packets are shown the sender has not sent any weather packets the latest 10 day(s).
| Time | Temp. | Humidity | Pressure | Rain* | Wind** | Luminosity | Snow |
|---|---|---|---|---|---|---|---|
| 1788244597 | 35.56° C | 78% | 1012.3 hPa | 0 mm | - | - | - |
| 1788243996 | 35.56° C | 78% | 1012.4 hPa | 0 mm | - | - | - |
| 1788243396 | 36.11° C | 79% | 1012.3 hPa | 0 mm | - | - | - |
| 1788242796 | 36.67° C | 77% | 1012 hPa | 0 mm | - | - | - |
| 1788242196 | 36.67° C | 69% | 1012.1 hPa | 0 mm | - | - | - |
| 1788241595 | 36.11° C | 71% | 1012.2 hPa | 0 mm | - | - | - |
| 1788240995 | 35.56° C | 72% | 1012.2 hPa | 0 mm | - | - | - |
| 1788240394 | 35.56° C | 72% | 1012.3 hPa | 0 mm | - | - | - |
| 1788239794 | 36.11° C | 72% | 1012.4 hPa | 0 mm | - | - | - |
| 1788239194 | 36.11° C | 72% | 1012.5 hPa | 0 mm | - | - | - |
| 1788238594 | 35.56° C | 74% | 1012.5 hPa | 0 mm | - | - | - |
| 1788237993 | 35° C | 73% | 1012.7 hPa | 0 mm | - | - | - |
| 1788237393 | 35° C | 74% | 1012.9 hPa | 0 mm | - | - | - |
| 1788236792 | 34.44° C | 76% | 1012.8 hPa | 0 mm | - | - | - |
| 1788236192 | 33.89° C | 77% | 1012.8 hPa | 0 mm | - | - | - |
| 1788235592 | 33.89° C | 78% | 1012.8 hPa | 0 mm | - | - | - |
| 1788234991 | 33.33° C | 80% | 1013 hPa | 0 mm | - | - | - |
| 1788234391 | 33.89° C | 78% | 1013 hPa | 0 mm | - | - | - |
| 1788233791 | 33.89° C | 78% | 1013 hPa | 0 mm | - | - | - |
| 1788233190 | 33.89° C | 79% | 1013 hPa | 0 mm | - | - | - |
| 1788232590 | 32.22° C | 84% | 1013.2 hPa | 0 mm | - | - | - |
| 1788231989 | 32.22° C | 84% | 1013 hPa | 0 mm | - | - | - |
| 1788231389 | 31.67° C | 86% | 1013.2 hPa | 0 mm | - | - | - |
| 1788230802 | 31.67° C | 84% | 1013.4 hPa | 0 mm | - | - | - |
| 1788230189 | 31.67° C | 86% | 1013.4 hPa | 0 mm | - | - | - |
* Rain since midnight (hover to see other rain measurements)
** Current wind speed in m/s (hover to see current wind gust speed)